sensor_id;sensor_type;location;lat;lon;timestamp;P1;durP1;ratioP1;P2;durP2;ratioP2
23280;SDS011;11809;56.390;-3.266;2022-09-30T00:00:55;3.22;;;2.15;;
23280;SDS011;11809;56.390;-3.266;2022-09-30T00:03:23;2.67;;;2.28;;
23280;SDS011;11809;56.390;-3.266;2022-09-30T00:05:59;4.55;;;2.40;;
23280;SDS011;11809;56.390;-3.266;2022-09-30T00:08:33;3.67;;;2.38;;
23280;SDS011;11809;56.390;-3.266;2022-09-30T00:11:03;4.20;;;2.03;;
23280;SDS011;11809;56.390;-3.266;2022-09-30T00:13:32;3.60;;;2.17;;
23280;SDS011;11809;56.390;-3.266;2022-09-30T00:16:01;3.10;;;1.98;;
23280;SDS011;11809;56.390;-3.266;2022-09-30T00:18:28;2.45;;;2.15;;
23280;SDS011;11809;56.390;-3.266;2022-09-30T00:20:56;2.40;;;2.00;;
23280;SDS011;11809;56.390;-3.266;2022-09-30T00:23:23;2.22;;;2.03;;
23280;SDS011;11809;56.390;-3.266;2022-09-30T00:25:55;2.85;;;2.20;;
23280;SDS011;11809;56.390;-3.266;2022-09-30T00:28:28;2.08;;;1.90;;
23280;SDS011;11809;56.390;-3.266;2022-09-30T00:31:02;2.92;;;2.30;;
23280;SDS011;11809;56.390;-3.266;2022-09-30T00:33:32;2.83;;;2.20;;
23280;SDS011;11809;56.390;-3.266;2022-09-30T00:36:00;2.80;;;1.92;;
23280;SDS011;11809;56.390;-3.266;2022-09-30T00:38:27;2.25;;;1.95;;
23280;SDS011;11809;56.390;-3.266;2022-09-30T00:40:54;4.50;;;2.35;;
23280;SDS011;11809;56.390;-3.266;2022-09-30T00:46:35;2.45;;;1.92;;
23280;SDS011;11809;56.390;-3.266;2022-09-30T00:49:11;2.20;;;2.00;;
23280;SDS011;11809;56.390;-3.266;2022-09-30T00:51:42;2.70;;;1.60;;
23280;SDS011;11809;56.390;-3.266;2022-09-30T00:54:14;2.92;;;2.13;;
23280;SDS011;11809;56.390;-3.266;2022-09-30T00:56:54;2.47;;;1.95;;
23280;SDS011;11809;56.390;-3.266;2022-09-30T00:59:26;2.20;;;2.00;;
23280;SDS011;11809;56.390;-3.266;2022-09-30T01:01:57;3.35;;;2.10;;
23280;SDS011;11809;56.390;-3.266;2022-09-30T01:04:24;2.83;;;2.08;;
23280;SDS011;11809;56.390;-3.266;2022-09-30T01:06:56;4.93;;;1.92;;
23280;SDS011;11809;56.390;-3.266;2022-09-30T01:09:25;3.65;;;2.20;;
23280;SDS011;11809;56.390;-3.266;2022-09-30T01:11:52;2.75;;;1.70;;
23280;SDS011;11809;56.390;-3.266;2022-09-30T01:14:20;3.03;;;1.90;;
23280;SDS011;11809;56.390;-3.266;2022-09-30T01:17:09;3.15;;;2.10;;
23280;SDS011;11809;56.390;-3.266;2022-09-30T01:27:57;2.03;;;1.85;;
23280;SDS011;11809;56.390;-3.266;2022-09-30T01:38:49;3.28;;;1.92;;
23280;SDS011;11809;56.390;-3.266;2022-09-30T01:41:46;2.10;;;1.90;;
23280;SDS011;11809;56.390;-3.266;2022-09-30T01:47:23;2.08;;;1.88;;
23280;SDS011;11809;56.390;-3.266;2022-09-30T01:50:13;1.92;;;1.80;;
23280;SDS011;11809;56.390;-3.266;2022-09-30T01:55:47;2.67;;;1.88;;
23280;SDS011;11809;56.390;-3.266;2022-09-30T02:01:11;2.90;;;1.80;;
23280;SDS011;11809;56.390;-3.266;2022-09-30T02:03:46;2.78;;;1.98;;
23280;SDS011;11809;56.390;-3.266;2022-09-30T02:06:18;2.42;;;1.80;;
23280;SDS011;11809;56.390;-3.266;2022-09-30T02:08:53;1.67;;;1.58;;
23280;SDS011;11809;56.390;-3.266;2022-09-30T02:11:23;1.70;;;1.60;;
23280;SDS011;11809;56.390;-3.266;2022-09-30T02:16:52;3.38;;;1.95;;
23280;SDS011;11809;56.390;-3.266;2022-09-30T02:19:42;1.95;;;1.85;;
23280;SDS011;11809;56.390;-3.266;2022-09-30T02:22:19;2.05;;;1.83;;
23280;SDS011;11809;56.390;-3.266;2022-09-30T02:24:52;2.33;;;2.03;;
23280;SDS011;11809;56.390;-3.266;2022-09-30T02:27:24;2.78;;;2.00;;
23280;SDS011;11809;56.390;-3.266;2022-09-30T02:29:58;2.28;;;1.80;;
23280;SDS011;11809;56.390;-3.266;2022-09-30T02:35:02;2.00;;;1.80;;
23280;SDS011;11809;56.390;-3.266;2022-09-30T02:37:34;3.20;;;1.77;;
23280;SDS011;11809;56.390;-3.266;2022-09-30T02:40:12;5.28;;;1.77;;
23280;SDS011;11809;56.390;-3.266;2022-09-30T02:42:46;2.03;;;1.83;;
23280;SDS011;11809;56.390;-3.266;2022-09-30T02:45:15;1.92;;;1.75;;
23280;SDS011;11809;56.390;-3.266;2022-09-30T02:55:44;2.00;;;1.67;;
23280;SDS011;11809;56.390;-3.266;2022-09-30T02:58:33;1.60;;;1.50;;
23280;SDS011;11809;56.390;-3.266;2022-09-30T03:01:08;1.80;;;1.70;;
23280;SDS011;11809;56.390;-3.266;2022-09-30T03:03:42;2.17;;;1.88;;
23280;SDS011;11809;56.390;-3.266;2022-09-30T03:06:19;2.63;;;1.80;;
23280;SDS011;11809;56.390;-3.266;2022-09-30T03:08:46;2.10;;;1.67;;
23280;SDS011;11809;56.390;-3.266;2022-09-30T03:11:15;1.98;;;1.50;;
23280;SDS011;11809;56.390;-3.266;2022-09-30T03:22:17;2.85;;;1.60;;
23280;SDS011;11809;56.390;-3.266;2022-09-30T03:30:37;3.90;;;1.60;;
23280;SDS011;11809;56.390;-3.266;2022-09-30T03:33:29;2.33;;;1.67;;
23280;SDS011;11809;56.390;-3.266;2022-09-30T03:36:03;2.33;;;1.60;;
23280;SDS011;11809;56.390;-3.266;2022-09-30T03:38:47;3.38;;;1.70;;
23280;SDS011;11809;56.390;-3.266;2022-09-30T03:41:27;2.38;;;1.58;;
23280;SDS011;11809;56.390;-3.266;2022-09-30T03:46:39;2.13;;;1.45;;
23280;SDS011;11809;56.390;-3.266;2022-09-30T03:49:11;2.63;;;1.70;;
23280;SDS011;11809;56.390;-3.266;2022-09-30T03:51:44;3.03;;;1.80;;
23280;SDS011;11809;56.390;-3.266;2022-09-30T03:54:12;1.95;;;1.70;;
23280;SDS011;11809;56.390;-3.266;2022-09-30T03:56:39;3.13;;;2.00;;
23280;SDS011;11809;56.390;-3.266;2022-09-30T03:59:22;3.38;;;1.50;;
23280;SDS011;11809;56.390;-3.266;2022-09-30T04:01:53;2.28;;;1.40;;
23280;SDS011;11809;56.390;-3.266;2022-09-30T04:04:22;3.28;;;1.75;;
23280;SDS011;11809;56.390;-3.266;2022-09-30T04:06:49;3.15;;;1.75;;
23280;SDS011;11809;56.390;-3.266;2022-09-30T04:09:16;2.78;;;1.63;;
23280;SDS011;11809;56.390;-3.266;2022-09-30T04:11:43;2.75;;;1.58;;
23280;SDS011;11809;56.390;-3.266;2022-09-30T04:14:10;2.67;;;1.50;;
23280;SDS011;11809;56.390;-3.266;2022-09-30T04:16:37;1.50;;;1.30;;
23280;SDS011;11809;56.390;-3.266;2022-09-30T04:19:04;4.63;;;1.50;;
23280;SDS011;11809;56.390;-3.266;2022-09-30T04:21:31;2.50;;;1.50;;
23280;SDS011;11809;56.390;-3.266;2022-09-30T04:23:58;2.50;;;1.73;;
23280;SDS011;11809;56.390;-3.266;2022-09-30T04:26:24;4.07;;;1.70;;
23280;SDS011;11809;56.390;-3.266;2022-09-30T04:28:52;3.03;;;1.73;;
23280;SDS011;11809;56.390;-3.266;2022-09-30T04:31:19;1.90;;;1.48;;
23280;SDS011;11809;56.390;-3.266;2022-09-30T04:33:46;1.63;;;1.30;;
23280;SDS011;11809;56.390;-3.266;2022-09-30T04:36:13;3.58;;;1.73;;
23280;SDS011;11809;56.390;-3.266;2022-09-30T04:38:40;3.88;;;1.60;;
23280;SDS011;11809;56.390;-3.266;2022-09-30T04:41:08;2.75;;;1.67;;
23280;SDS011;11809;56.390;-3.266;2022-09-30T04:43:41;3.28;;;1.80;;
23280;SDS011;11809;56.390;-3.266;2022-09-30T04:46:12;4.20;;;1.70;;
23280;SDS011;11809;56.390;-3.266;2022-09-30T04:48:44;2.53;;;1.58;;
23280;SDS011;11809;56.390;-3.266;2022-09-30T04:51:15;3.15;;;1.73;;
23280;SDS011;11809;56.390;-3.266;2022-09-30T04:53:46;7.10;;;2.13;;
23280;SDS011;11809;56.390;-3.266;2022-09-30T04:56:14;8.52;;;2.10;;
23280;SDS011;11809;56.390;-3.266;2022-09-30T04:58:42;8.05;;;1.92;;
23280;SDS011;11809;56.390;-3.266;2022-09-30T05:01:13;6.97;;;2.88;;
23280;SDS011;11809;56.390;-3.266;2022-09-30T05:03:41;9.93;;;2.40;;
23280;SDS011;11809;56.390;-3.266;2022-09-30T05:06:09;5.93;;;1.92;;
23280;SDS011;11809;56.390;-3.266;2022-09-30T05:08:36;6.35;;;1.90;;
23280;SDS011;11809;56.390;-3.266;2022-09-30T05:11:12;3.65;;;1.77;;
23280;SDS011;11809;56.390;-3.266;2022-09-30T05:13:40;6.05;;;1.80;;
23280;SDS011;11809;56.390;-3.266;2022-09-30T05:16:08;3.97;;;1.95;;
23280;SDS011;11809;56.390;-3.266;2022-09-30T05:18:35;5.25;;;1.88;;
23280;SDS011;11809;56.390;-3.266;2022-09-30T05:21:03;6.70;;;2.83;;
23280;SDS011;11809;56.390;-3.266;2022-09-30T05:23:31;5.35;;;2.50;;
23280;SDS011;11809;56.390;-3.266;2022-09-30T05:25:59;5.20;;;2.65;;
23280;SDS011;11809;56.390;-3.266;2022-09-30T05:28:26;10.45;;;2.78;;
23280;SDS011;11809;56.390;-3.266;2022-09-30T05:30:57;6.40;;;2.10;;
23280;SDS011;11809;56.390;-3.266;2022-09-30T05:33:25;3.97;;;2.00;;
23280;SDS011;11809;56.390;-3.266;2022-09-30T05:35:57;4.78;;;2.00;;
23280;SDS011;11809;56.390;-3.266;2022-09-30T05:38:26;4.55;;;2.20;;
23280;SDS011;11809;56.390;-3.266;2022-09-30T05:40:53;4.63;;;2.10;;
23280;SDS011;11809;56.390;-3.266;2022-09-30T05:43:20;4.20;;;2.25;;
23280;SDS011;11809;56.390;-3.266;2022-09-30T05:45:51;2.30;;;1.75;;
23280;SDS011;11809;56.390;-3.266;2022-09-30T05:48:19;4.78;;;1.88;;
23280;SDS011;11809;56.390;-3.266;2022-09-30T05:50:46;4.07;;;2.08;;
23280;SDS011;11809;56.390;-3.266;2022-09-30T05:53:16;4.38;;;2.25;;
23280;SDS011;11809;56.390;-3.266;2022-09-30T05:55:44;3.35;;;1.83;;
23280;SDS011;11809;56.390;-3.266;2022-09-30T05:58:13;3.50;;;1.60;;
23280;SDS011;11809;56.390;-3.266;2022-09-30T06:00:41;2.53;;;1.52;;
23280;SDS011;11809;56.390;-3.266;2022-09-30T06:03:09;3.50;;;1.63;;
23280;SDS011;11809;56.390;-3.266;2022-09-30T06:05:37;4.45;;;1.80;;
23280;SDS011;11809;56.390;-3.266;2022-09-30T06:08:04;2.10;;;1.63;;
23280;SDS011;11809;56.390;-3.266;2022-09-30T06:10:33;2.00;;;1.60;;
23280;SDS011;11809;56.390;-3.266;2022-09-30T06:13:03;2.95;;;1.80;;
23280;SDS011;11809;56.390;-3.266;2022-09-30T06:15:30;4.07;;;1.92;;
23280;SDS011;11809;56.390;-3.266;2022-09-30T06:17:58;10.02;;;1.92;;
23280;SDS011;11809;56.390;-3.266;2022-09-30T06:20:25;10.32;;;2.47;;
23280;SDS011;11809;56.390;-3.266;2022-09-30T06:22:52;9.05;;;2.53;;
23280;SDS011;11809;56.390;-3.266;2022-09-30T06:25:20;5.97;;;2.47;;
23280;SDS011;11809;56.390;-3.266;2022-09-30T06:27:47;10.68;;;2.70;;
23280;SDS011;11809;56.390;-3.266;2022-09-30T06:30:15;7.15;;;2.55;;
23280;SDS011;11809;56.390;-3.266;2022-09-30T06:32:42;9.38;;;2.97;;
23280;SDS011;11809;56.390;-3.266;2022-09-30T06:35:09;11.05;;;2.70;;
23280;SDS011;11809;56.390;-3.266;2022-09-30T06:37:37;6.68;;;2.80;;
23280;SDS011;11809;56.390;-3.266;2022-09-30T06:40:04;6.40;;;2.60;;
23280;SDS011;11809;56.390;-3.266;2022-09-30T06:42:33;6.55;;;2.60;;
23280;SDS011;11809;56.390;-3.266;2022-09-30T06:45:00;8.18;;;2.30;;
23280;SDS011;11809;56.390;-3.266;2022-09-30T06:47:27;6.80;;;2.25;;
23280;SDS011;11809;56.390;-3.266;2022-09-30T06:49:54;6.53;;;2.03;;
23280;SDS011;11809;56.390;-3.266;2022-09-30T06:52:25;3.83;;;1.88;;
23280;SDS011;11809;56.390;-3.266;2022-09-30T06:54:52;5.18;;;1.98;;
23280;SDS011;11809;56.390;-3.266;2022-09-30T06:57:22;5.50;;;2.10;;
23280;SDS011;11809;56.390;-3.266;2022-09-30T06:59:50;3.13;;;1.80;;
23280;SDS011;11809;56.390;-3.266;2022-09-30T07:02:17;6.78;;;2.00;;
23280;SDS011;11809;56.390;-3.266;2022-09-30T07:04:44;5.22;;;1.95;;
23280;SDS011;11809;56.390;-3.266;2022-09-30T07:07:11;4.35;;;2.03;;
23280;SDS011;11809;56.390;-3.266;2022-09-30T07:09:39;4.05;;;2.13;;
23280;SDS011;11809;56.390;-3.266;2022-09-30T07:12:06;4.60;;;2.20;;
23280;SDS011;11809;56.390;-3.266;2022-09-30T07:14:33;4.68;;;2.08;;
23280;SDS011;11809;56.390;-3.266;2022-09-30T07:17:01;3.90;;;1.95;;
23280;SDS011;11809;56.390;-3.266;2022-09-30T07:19:30;2.80;;;1.95;;
23280;SDS011;11809;56.390;-3.266;2022-09-30T07:21:59;3.45;;;1.90;;
23280;SDS011;11809;56.390;-3.266;2022-09-30T07:24:47;2.83;;;1.92;;
23280;SDS011;11809;56.390;-3.266;2022-09-30T07:27:14;4.43;;;2.40;;
23280;SDS011;11809;56.390;-3.266;2022-09-30T07:29:41;3.60;;;1.95;;
23280;SDS011;11809;56.390;-3.266;2022-09-30T07:32:29;2.67;;;1.80;;
23280;SDS011;11809;56.390;-3.266;2022-09-30T07:34:57;2.05;;;1.85;;
23280;SDS011;11809;56.390;-3.266;2022-09-30T07:37:24;3.45;;;2.03;;
23280;SDS011;11809;56.390;-3.266;2022-09-30T07:39:51;4.57;;;2.15;;
23280;SDS011;11809;56.390;-3.266;2022-09-30T07:42:19;2.47;;;1.77;;
23280;SDS011;11809;56.390;-3.266;2022-09-30T07:44:48;3.80;;;1.73;;
23280;SDS011;11809;56.390;-3.266;2022-09-30T07:47:17;2.85;;;1.70;;
23280;SDS011;11809;56.390;-3.266;2022-09-30T07:49:45;3.35;;;1.90;;
23280;SDS011;11809;56.390;-3.266;2022-09-30T07:52:13;2.33;;;1.48;;
23280;SDS011;11809;56.390;-3.266;2022-09-30T07:54:41;3.20;;;1.80;;
23280;SDS011;11809;56.390;-3.266;2022-09-30T07:57:15;10.35;;;2.42;;
23280;SDS011;11809;56.390;-3.266;2022-09-30T07:59:42;9.02;;;1.92;;
23280;SDS011;11809;56.390;-3.266;2022-09-30T08:02:18;8.88;;;1.85;;
23280;SDS011;11809;56.390;-3.266;2022-09-30T08:04:45;2.58;;;1.50;;
23280;SDS011;11809;56.390;-3.266;2022-09-30T08:07:13;3.53;;;1.85;;
23280;SDS011;11809;56.390;-3.266;2022-09-30T08:09:41;6.38;;;1.70;;
23280;SDS011;11809;56.390;-3.266;2022-09-30T08:12:09;4.47;;;1.50;;
23280;SDS011;11809;56.390;-3.266;2022-09-30T08:14:36;1.85;;;1.35;;
23280;SDS011;11809;56.390;-3.266;2022-09-30T08:17:03;3.33;;;1.58;;
23280;SDS011;11809;56.390;-3.266;2022-09-30T08:19:30;3.13;;;1.60;;
23280;SDS011;11809;56.390;-3.266;2022-09-30T08:21:59;4.47;;;1.45;;
23280;SDS011;11809;56.390;-3.266;2022-09-30T08:24:46;2.05;;;1.35;;
23280;SDS011;11809;56.390;-3.266;2022-09-30T08:27:13;5.72;;;1.70;;
23280;SDS011;11809;56.390;-3.266;2022-09-30T08:29:40;3.55;;;1.60;;
23280;SDS011;11809;56.390;-3.266;2022-09-30T08:32:21;2.90;;;1.70;;
23280;SDS011;11809;56.390;-3.266;2022-09-30T08:34:49;3.42;;;1.58;;
23280;SDS011;11809;56.390;-3.266;2022-09-30T08:37:16;4.22;;;1.70;;
23280;SDS011;11809;56.390;-3.266;2022-09-30T08:39:44;2.67;;;1.35;;
23280;SDS011;11809;56.390;-3.266;2022-09-30T08:45:14;5.10;;;1.60;;
23280;SDS011;11809;56.390;-3.266;2022-09-30T08:47:47;2.45;;;1.65;;
23280;SDS011;11809;56.390;-3.266;2022-09-30T08:54:02;2.00;;;1.30;;
23280;SDS011;11809;56.390;-3.266;2022-09-30T08:56:35;5.20;;;1.38;;
23280;SDS011;11809;56.390;-3.266;2022-09-30T09:01:42;3.85;;;1.50;;
23280;SDS011;11809;56.390;-3.266;2022-09-30T09:04:14;11.48;;;2.05;;
23280;SDS011;11809;56.390;-3.266;2022-09-30T09:09:50;2.15;;;1.10;;
23280;SDS011;11809;56.390;-3.266;2022-09-30T09:20:17;3.72;;;1.70;;
23280;SDS011;11809;56.390;-3.266;2022-09-30T09:22:48;2.17;;;1.50;;
23280;SDS011;11809;56.390;-3.266;2022-09-30T09:25:18;2.38;;;1.13;;
23280;SDS011;11809;56.390;-3.266;2022-09-30T09:27:52;2.35;;;1.10;;
23280;SDS011;11809;56.390;-3.266;2022-09-30T09:30:24;5.28;;;1.05;;
23280;SDS011;11809;56.390;-3.266;2022-09-30T09:32:55;2.03;;;1.00;;
23280;SDS011;11809;56.390;-3.266;2022-09-30T09:46:20;2.88;;;1.23;;
23280;SDS011;11809;56.390;-3.266;2022-09-30T09:51:40;2.22;;;0.98;;
23280;SDS011;11809;56.390;-3.266;2022-09-30T09:54:14;2.97;;;1.10;;
23280;SDS011;11809;56.390;-3.266;2022-09-30T09:56:47;1.65;;;0.80;;
23280;SDS011;11809;56.390;-3.266;2022-09-30T09:59:16;1.00;;;0.73;;
23280;SDS011;11809;56.390;-3.266;2022-09-30T10:01:52;1.80;;;0.90;;
23280;SDS011;11809;56.390;-3.266;2022-09-30T10:06:56;2.25;;;0.80;;
23280;SDS011;11809;56.390;-3.266;2022-09-30T10:09:27;1.65;;;0.88;;
23280;SDS011;11809;56.390;-3.266;2022-09-30T10:15:17;2.60;;;0.77;;
23280;SDS011;11809;56.390;-3.266;2022-09-30T10:17:33;2.40;;;0.63;;
23280;SDS011;11809;56.390;-3.266;2022-09-30T10:22:41;1.63;;;0.65;;
23280;SDS011;11809;56.390;-3.266;2022-09-30T10:25:14;2.60;;;0.80;;
23280;SDS011;11809;56.390;-3.266;2022-09-30T10:27:48;2.35;;;0.80;;
23280;SDS011;11809;56.390;-3.266;2022-09-30T10:33:09;2.30;;;0.65;;
23280;SDS011;11809;56.390;-3.266;2022-09-30T10:35:51;1.92;;;0.75;;
23280;SDS011;11809;56.390;-3.266;2022-09-30T10:38:30;1.45;;;0.68;;
23280;SDS011;11809;56.390;-3.266;2022-09-30T10:41:00;3.13;;;0.70;;
23280;SDS011;11809;56.390;-3.266;2022-09-30T10:45:58;2.63;;;0.75;;
23280;SDS011;11809;56.390;-3.266;2022-09-30T10:48:49;1.17;;;0.50;;
23280;SDS011;11809;56.390;-3.266;2022-09-30T10:51:21;0.90;;;0.55;;
23280;SDS011;11809;56.390;-3.266;2022-09-30T10:53:52;0.50;;;0.50;;
23280;SDS011;11809;56.390;-3.266;2022-09-30T10:56:36;1.60;;;0.60;;
23280;SDS011;11809;56.390;-3.266;2022-09-30T10:59:13;1.10;;;0.50;;
23280;SDS011;11809;56.390;-3.266;2022-09-30T11:02:22;2.60;;;0.52;;
23280;SDS011;11809;56.390;-3.266;2022-09-30T11:04:47;1.02;;;0.40;;
23280;SDS011;11809;56.390;-3.266;2022-09-30T11:10:30;0.40;;;0.40;;
23280;SDS011;11809;56.390;-3.266;2022-09-30T11:21:45;2.42;;;0.30;;
23280;SDS011;11809;56.390;-3.266;2022-09-30T11:27:03;0.60;;;0.30;;
23280;SDS011;11809;56.390;-3.266;2022-09-30T11:35:07;0.17;;;0.17;;
23280;SDS011;11809;56.390;-3.266;2022-09-30T11:37:39;0.30;;;0.30;;
23280;SDS011;11809;56.390;-3.266;2022-09-30T11:59:37;0.95;;;0.10;;
23280;SDS011;11809;56.390;-3.266;2022-09-30T12:05:15;1.75;;;0.30;;
23280;SDS011;11809;56.390;-3.266;2022-09-30T12:07:46;1.52;;;0.20;;
23280;SDS011;11809;56.390;-3.266;2022-09-30T12:10:31;0.65;;;0.10;;
23280;SDS011;11809;56.390;-3.266;2022-09-30T12:13:09;3.80;;;0.50;;
23280;SDS011;11809;56.390;-3.266;2022-09-30T12:15:40;0.20;;;0.17;;
23280;SDS011;11809;56.390;-3.266;2022-09-30T12:18:11;1.93;;;0.30;;
23280;SDS011;11809;56.390;-3.266;2022-09-30T12:20:45;1.45;;;0.20;;
23280;SDS011;11809;56.390;-3.266;2022-09-30T12:23:26;1.10;;;0.22;;
23280;SDS011;11809;56.390;-3.266;2022-09-30T12:25:58;2.33;;;0.28;;
23280;SDS011;11809;56.390;-3.266;2022-09-30T12:28:32;5.47;;;0.63;;
23280;SDS011;11809;56.390;-3.266;2022-09-30T12:48:26;1.13;;;0.20;;
23280;SDS011;11809;56.390;-3.266;2022-09-30T12:51:07;0.45;;;0.30;;
23280;SDS011;11809;56.390;-3.266;2022-09-30T12:53:36;10.13;;;0.93;;
23280;SDS011;11809;56.390;-3.266;2022-09-30T12:56:11;1.27;;;0.30;;
23280;SDS011;11809;56.390;-3.266;2022-09-30T12:58:45;0.38;;;0.20;;
23280;SDS011;11809;56.390;-3.266;2022-09-30T13:01:22;0.20;;;0.10;;
23280;SDS011;11809;56.390;-3.266;2022-09-30T13:09:17;0.60;;;0.47;;
23280;SDS011;11809;56.390;-3.266;2022-09-30T13:27:34;1.15;;;0.30;;
23280;SDS011;11809;56.390;-3.266;2022-09-30T13:30:46;27.23;;;1.60;;
23280;SDS011;11809;56.390;-3.266;2022-09-30T13:35:35;2.05;;;0.40;;
23280;SDS011;11809;56.390;-3.266;2022-09-30T13:38:19;1.25;;;0.75;;
23280;SDS011;11809;56.390;-3.266;2022-09-30T13:40:56;2.10;;;0.50;;
23280;SDS011;11809;56.390;-3.266;2022-09-30T13:49:11;0.95;;;0.68;;
23280;SDS011;11809;56.390;-3.266;2022-09-30T13:51:44;3.55;;;0.88;;
23280;SDS011;11809;56.390;-3.266;2022-09-30T13:56:59;0.80;;;0.60;;
23280;SDS011;11809;56.390;-3.266;2022-09-30T14:08:09;1.77;;;0.60;;
23280;SDS011;11809;56.390;-3.266;2022-09-30T14:22:38;2.53;;;0.60;;
23280;SDS011;11809;56.390;-3.266;2022-09-30T14:25:16;1.35;;;0.50;;
23280;SDS011;11809;56.390;-3.266;2022-09-30T14:30:38;4.13;;;0.52;;
23280;SDS011;11809;56.390;-3.266;2022-09-30T14:33:23;3.85;;;0.60;;
23280;SDS011;11809;56.390;-3.266;2022-09-30T14:35:53;7.60;;;0.70;;
23280;SDS011;11809;56.390;-3.266;2022-09-30T14:38:21;5.80;;;0.68;;
23280;SDS011;11809;56.390;-3.266;2022-09-30T14:40:55;3.08;;;0.90;;
23280;SDS011;11809;56.390;-3.266;2022-09-30T14:43:28;3.50;;;0.70;;
23280;SDS011;11809;56.390;-3.266;2022-09-30T14:48:57;1.02;;;0.50;;
23280;SDS011;11809;56.390;-3.266;2022-09-30T14:51:27;5.15;;;0.60;;
23280;SDS011;11809;56.390;-3.266;2022-09-30T14:54:01;9.13;;;0.65;;
23280;SDS011;11809;56.390;-3.266;2022-09-30T14:56:29;3.95;;;0.70;;
23280;SDS011;11809;56.390;-3.266;2022-09-30T14:58:58;2.78;;;0.70;;
23280;SDS011;11809;56.390;-3.266;2022-09-30T15:01:29;1.17;;;0.57;;
23280;SDS011;11809;56.390;-3.266;2022-09-30T15:04:09;1.20;;;0.50;;
23280;SDS011;11809;56.390;-3.266;2022-09-30T15:06:48;0.77;;;0.55;;
23280;SDS011;11809;56.390;-3.266;2022-09-30T15:09:19;2.88;;;0.70;;
23280;SDS011;11809;56.390;-3.266;2022-09-30T15:19:48;1.30;;;0.60;;
23280;SDS011;11809;56.390;-3.266;2022-09-30T15:22:16;3.97;;;0.70;;
23280;SDS011;11809;56.390;-3.266;2022-09-30T15:24:45;2.70;;;1.00;;
23280;SDS011;11809;56.390;-3.266;2022-09-30T15:27:18;1.52;;;0.50;;
23280;SDS011;11809;56.390;-3.266;2022-09-30T15:32:22;1.63;;;0.70;;
23280;SDS011;11809;56.390;-3.266;2022-09-30T15:34:51;4.03;;;0.73;;
23280;SDS011;11809;56.390;-3.266;2022-09-30T15:37:19;1.48;;;0.70;;
23280;SDS011;11809;56.390;-3.266;2022-09-30T15:39:49;2.03;;;0.70;;
23280;SDS011;11809;56.390;-3.266;2022-09-30T15:42:36;3.33;;;0.85;;
23280;SDS011;11809;56.390;-3.266;2022-09-30T15:48:02;1.52;;;0.40;;
23280;SDS011;11809;56.390;-3.266;2022-09-30T15:50:35;3.13;;;0.68;;
23280;SDS011;11809;56.390;-3.266;2022-09-30T15:55:52;6.85;;;1.15;;
23280;SDS011;11809;56.390;-3.266;2022-09-30T15:58:37;4.97;;;1.40;;
23280;SDS011;11809;56.390;-3.266;2022-09-30T16:01:13;9.45;;;1.55;;
23280;SDS011;11809;56.390;-3.266;2022-09-30T16:03:57;5.32;;;1.48;;
23280;SDS011;11809;56.390;-3.266;2022-09-30T16:11:55;6.53;;;1.10;;
23280;SDS011;11809;56.390;-3.266;2022-09-30T16:14:28;16.77;;;1.48;;
23280;SDS011;11809;56.390;-3.266;2022-09-30T16:17:31;13.70;;;1.20;;
23280;SDS011;11809;56.390;-3.266;2022-09-30T16:20:03;8.45;;;0.93;;
23280;SDS011;11809;56.390;-3.266;2022-09-30T16:25:28;8.73;;;1.70;;
23280;SDS011;11809;56.390;-3.266;2022-09-30T16:28:12;3.05;;;1.23;;
23280;SDS011;11809;56.390;-3.266;2022-09-30T16:30:41;18.60;;;1.70;;
23280;SDS011;11809;56.390;-3.266;2022-09-30T16:33:11;6.63;;;2.00;;
23280;SDS011;11809;56.390;-3.266;2022-09-30T16:35:40;8.43;;;2.08;;
23280;SDS011;11809;56.390;-3.266;2022-09-30T16:38:11;6.32;;;2.15;;
23280;SDS011;11809;56.390;-3.266;2022-09-30T16:40:41;5.20;;;1.80;;
23280;SDS011;11809;56.390;-3.266;2022-09-30T16:43:08;6.80;;;2.22;;
23280;SDS011;11809;56.390;-3.266;2022-09-30T16:45:37;7.25;;;1.70;;
23280;SDS011;11809;56.390;-3.266;2022-09-30T16:48:10;5.68;;;1.65;;
23280;SDS011;11809;56.390;-3.266;2022-09-30T16:53:10;6.35;;;1.52;;
23280;SDS011;11809;56.390;-3.266;2022-09-30T16:55:37;14.00;;;2.45;;
23280;SDS011;11809;56.390;-3.266;2022-09-30T16:58:04;6.20;;;2.10;;
23280;SDS011;11809;56.390;-3.266;2022-09-30T17:00:32;8.60;;;2.85;;
23280;SDS011;11809;56.390;-3.266;2022-09-30T17:03:00;8.80;;;3.28;;
23280;SDS011;11809;56.390;-3.266;2022-09-30T17:05:27;4.35;;;2.60;;
23280;SDS011;11809;56.390;-3.266;2022-09-30T17:07:55;7.00;;;2.20;;
23280;SDS011;11809;56.390;-3.266;2022-09-30T17:10:27;5.50;;;1.80;;
23280;SDS011;11809;56.390;-3.266;2022-09-30T17:12:56;5.47;;;2.03;;
23280;SDS011;11809;56.390;-3.266;2022-09-30T17:15:26;3.95;;;1.70;;
23280;SDS011;11809;56.390;-3.266;2022-09-30T17:17:54;4.63;;;1.60;;
23280;SDS011;11809;56.390;-3.266;2022-09-30T17:20:21;3.92;;;1.60;;
23280;SDS011;11809;56.390;-3.266;2022-09-30T17:22:49;3.67;;;1.52;;
23280;SDS011;11809;56.390;-3.266;2022-09-30T17:25:16;5.00;;;1.38;;
23280;SDS011;11809;56.390;-3.266;2022-09-30T17:27:47;6.68;;;1.50;;
23280;SDS011;11809;56.390;-3.266;2022-09-30T17:30:16;4.57;;;1.30;;
23280;SDS011;11809;56.390;-3.266;2022-09-30T17:32:44;6.25;;;1.30;;
23280;SDS011;11809;56.390;-3.266;2022-09-30T17:35:12;3.80;;;1.10;;
23280;SDS011;11809;56.390;-3.266;2022-09-30T17:37:40;3.97;;;1.20;;
23280;SDS011;11809;56.390;-3.266;2022-09-30T17:40:11;4.95;;;1.40;;
23280;SDS011;11809;56.390;-3.266;2022-09-30T17:42:57;7.63;;;1.20;;
23280;SDS011;11809;56.390;-3.266;2022-09-30T17:45:34;6.80;;;1.35;;
23280;SDS011;11809;56.390;-3.266;2022-09-30T17:48:02;12.02;;;1.35;;
23280;SDS011;11809;56.390;-3.266;2022-09-30T17:50:30;4.07;;;1.02;;
23280;SDS011;11809;56.390;-3.266;2022-09-30T17:52:57;9.18;;;1.50;;
23280;SDS011;11809;56.390;-3.266;2022-09-30T17:55:24;4.13;;;1.40;;
23280;SDS011;11809;56.390;-3.266;2022-09-30T17:57:51;4.15;;;1.35;;
23280;SDS011;11809;56.390;-3.266;2022-09-30T18:00:21;4.45;;;1.15;;
23280;SDS011;11809;56.390;-3.266;2022-09-30T18:02:49;2.97;;;1.58;;
23280;SDS011;11809;56.390;-3.266;2022-09-30T18:05:16;13.43;;;1.98;;
23280;SDS011;11809;56.390;-3.266;2022-09-30T18:07:43;5.60;;;1.63;;
23280;SDS011;11809;56.390;-3.266;2022-09-30T18:10:11;5.00;;;1.58;;
23280;SDS011;11809;56.390;-3.266;2022-09-30T18:12:39;5.35;;;1.55;;
23280;SDS011;11809;56.390;-3.266;2022-09-30T18:15:06;15.32;;;2.83;;
23280;SDS011;11809;56.390;-3.266;2022-09-30T18:17:33;8.25;;;1.60;;
23280;SDS011;11809;56.390;-3.266;2022-09-30T18:20:00;4.25;;;1.70;;
23280;SDS011;11809;56.390;-3.266;2022-09-30T18:22:28;7.13;;;1.80;;
23280;SDS011;11809;56.390;-3.266;2022-09-30T18:24:55;7.68;;;1.67;;
23280;SDS011;11809;56.390;-3.266;2022-09-30T18:27:40;8.52;;;1.95;;
23280;SDS011;11809;56.390;-3.266;2022-09-30T18:30:08;7.68;;;2.25;;
23280;SDS011;11809;56.390;-3.266;2022-09-30T18:32:37;7.95;;;1.70;;
23280;SDS011;11809;56.390;-3.266;2022-09-30T18:35:05;8.25;;;2.80;;
23280;SDS011;11809;56.390;-3.266;2022-09-30T18:37:37;10.05;;;2.42;;
23280;SDS011;11809;56.390;-3.266;2022-09-30T18:40:08;10.23;;;2.97;;
23280;SDS011;11809;56.390;-3.266;2022-09-30T18:42:35;10.15;;;2.20;;
23280;SDS011;11809;56.390;-3.266;2022-09-30T18:45:04;9.93;;;1.70;;
23280;SDS011;11809;56.390;-3.266;2022-09-30T18:47:31;3.78;;;1.42;;
23280;SDS011;11809;56.390;-3.266;2022-09-30T18:49:59;5.60;;;1.48;;
23280;SDS011;11809;56.390;-3.266;2022-09-30T18:52:26;4.20;;;1.50;;
23280;SDS011;11809;56.390;-3.266;2022-09-30T18:54:53;5.30;;;1.85;;
23280;SDS011;11809;56.390;-3.266;2022-09-30T18:57:20;5.63;;;1.60;;
23280;SDS011;11809;56.390;-3.266;2022-09-30T18:59:47;3.35;;;1.60;;
23280;SDS011;11809;56.390;-3.266;2022-09-30T19:02:16;8.50;;;1.70;;
23280;SDS011;11809;56.390;-3.266;2022-09-30T19:04:45;4.30;;;1.58;;
23280;SDS011;11809;56.390;-3.266;2022-09-30T19:07:17;15.10;;;1.88;;
23280;SDS011;11809;56.390;-3.266;2022-09-30T19:09:46;5.63;;;1.38;;